KMSV/MSV METAR and TAF weather

Enter ICAO airport designator
Station Type Date Time Source
KMSV METAR 2020/04/07 06:56 UTC NOAA

KMSV 070656Z AUTO 33013G16KT 10SM BKN055 OVC075 07/M01 A2995 RMK AO2 SLP145 T00721011


Station Type Date Time Source
KMSV Decoded METAR 2020/04/07 06:56 UTC NOAA

Monticello, Sullivan County International Airport, NY, United States (KMSV) 41-42N 074-48W
Apr 07, 2020 - 02:56 AM EDT / 2020.04.07 0656 UTC
Wind: from the NNW (330 degrees) at 15 MPH (13 KT) gusting to 18 MPH (16 KT):0
Visibility: 10 mile(s):0
Sky conditions: overcast
Temperature: 45.0 F (7.2 C)
Dew Point: 30.0 F (-1.1 C)
Relative Humidity: 55%
Pressure (altimeter): 29.95 in. Hg (1014 hPa)
ob: KMSV 070656Z AUTO 33013G16KT 10SM BKN055 OVC075 07/M01 A2995 RMK AO2 SLP145 T00721011
cycle: 7

Station Type Date Time Source
KMSV TAF UTC NOAA

Error!

Example: see airport list